Terminal Aerodrome Forecast
Issued by NWS

Home | Current Version | Previous Version | Text Only | Print | Product List | Glossary On
Versions: 1 2 3 4 5 6 7 8 9 10 11 12 13 14 15 16 17 18 19 20 21 22 23 24 25 26 27 28 29 30
000
FTUS41 KOKX 221900 AAA
TAFTEB
TAF AMD
KTEB 221932Z 2220/2318 30015G25KT P6SM SCT050
     FM222200 32012G19KT P6SM SCT040
     FM230200 VRB05KT P6SM SKC
     FM231500 33007KT P6SM SKC=

USA.gov is the U.S. government's official web portal to all federal, state and local government web resources and services.